Northern Power — A8TL6 — position and weather

sailwx.info

Track history (hours):
 
Tides and Currents Weather Stations Pressure Air Temp Water Temp Dewpoint Dewpoint Depression Visibility Wind Speed Wind Dir Waves Ship Positions

Northern Power

Last reported at 2015-Jul-25 14:15 UTC. Time now 2015-Jul-30 00:07 UTC.
Position N 03°25' E 100°19'.

Length 264 m; draft 10.4 m.

Type: Cargo ship. MMSI: 636091835.

Date/timePositionNaut miles runAvg speedWind from/ knotsBaromVisibWave heightAir tempDewpointWater temp
2015-Jul-25 14:15N 03°25' E 100°19'3319.2
2015-Jul-25 12:32N 03°04' E 100°44'3819.5
2015-Jul-25 10:33N 02°42' E 101°16'17219.0
2015-Jul-25 01:30N 01°10' E 103°42'1111.2
2015-Jul-25 00:33N 01°13' E 103°52'3 3.1
2015-Jul-24 23:34N 01°16' E 103°51'0 0.0
2015-Jul-24 22:33N 01°16' E 103°51'0 0.1
2015-Jul-24 21:33N 01°16' E 103°51'0 0.1
2015-Jul-24 20:33N 01°16' E 103°51'0 0.0
2015-Jul-24 19:34N 01°16' E 103°51'0 0.0
2015-Jul-24 18:33N 01°16' E 103°51'0 0.0
2015-Jul-24 17:33N 01°16' E 103°51'0 0.0
2015-Jul-24 16:33N 01°16' E 103°51'0 0.0
2015-Jul-24 15:33N 01°16' E 103°51'0 0.0
2015-Jul-24 14:33N 01°16' E 103°51'0 0.0
2015-Jul-24 13:33N 01°16' E 103°51'0 0.0
2015-Jul-24 12:32N 01°16' E 103°51'0 0.0
2015-Jul-24 11:33N 01°16' E 103°51'0 0.0
2015-Jul-24 10:33N 01°16' E 103°51'0 0.0
2015-Jul-24 09:33N 01°16' E 103°51'0 0.0
2015-Jul-24 08:33N 01°16' E 103°51'0 0.0
2015-Jul-24 07:33N 01°16' E 103°51'0 0.0
2015-Jul-24 06:33N 01°16' E 103°51'0 0.0
2015-Jul-24 05:33N 01°16' E 103°51'0 0.1
2015-Jul-24 04:33N 01°16' E 103°51'0 0.1
2015-Jul-24 03:33N 01°16' E 103°51'0 0.0
2015-Jul-24 02:33N 01°16' E 103°51'0 0.0
2015-Jul-24 01:31N 01°16' E 103°51'0 0.0
2015-Jul-24 00:33N 01°16' E 103°51'0 0.0
2015-Jul-23 23:33N 01°16' E 103°51'0 0.1
2015-Jul-23 22:33N 01°16' E 103°51'5 4.5
2015-Jul-23 21:33N 01°11' E 103°51'11316.0
2015-Jul-23 14:31N 01°58' E 102°08'3417.4
2015-Jul-23 12:33N 02°21' E 101°43'4414.6
2015-Jul-23 09:33N 02°51' E 101°12'9 4.4
2015-Jul-23 07:34N 02°57' E 101°18'5 4.8
2015-Jul-23 06:28N 03°02' E 101°21'0 0.0
2015-Jul-23 04:28N 03°02' E 101°21'0 0.0
2015-Jul-23 02:28N 03°02' E 101°21'0 0.0
2015-Jul-23 00:31N 03°02' E 101°21'0 0.0
2015-Jul-22 23:31N 03°01' E 101°21'0 0.0
2015-Jul-22 22:31N 03°01' E 101°21'1210.1
2015-Jul-22 21:21N 03°11' E 101°14'3116.8
2015-Jul-22 19:31N 03°28' E 100°49'1818.1
2015-Jul-22 18:33N 03°37' E 100°34'5317.8
2015-Jul-22 15:33N 04°06' E 099°49'3618.0
2015-Jul-22 13:33N 04°27' E 099°19'  
Track history (hours):
 
Tides and Currents Weather Stations Pressure Air Temp Water Temp Dewpoint Dewpoint Depression Visibility Wind Speed Wind Dir Waves Ship Positions

Northern Power

Last reported at 2015-Jul-25 14:15 UTC. Time now 2015-Jul-30 00:07 UTC.
Position N 03°25' E 100°19'.

Length 264 m; draft 10.4 m.

Type: Cargo ship. MMSI: 636091835.

Date/timePositionNaut miles runAvg speedWind from/ knotsBaromVisibWave heightAir tempDewpointWater temp
2015-Jul-25 14:15N 03°25' E 100°19'3319.2
2015-Jul-25 12:32N 03°04' E 100°44'3819.5
2015-Jul-25 10:33N 02°42' E 101°16'17219.0
2015-Jul-25 01:30N 01°10' E 103°42'1111.2
2015-Jul-25 00:33N 01°13' E 103°52'3 3.1
2015-Jul-24 23:34N 01°16' E 103°51'0 0.0
2015-Jul-24 22:33N 01°16' E 103°51'0 0.1
2015-Jul-24 21:33N 01°16' E 103°51'0 0.1
2015-Jul-24 20:33N 01°16' E 103°51'0 0.0
2015-Jul-24 19:34N 01°16' E 103°51'0 0.0
2015-Jul-24 18:33N 01°16' E 103°51'0 0.0
2015-Jul-24 17:33N 01°16' E 103°51'0 0.0
2015-Jul-24 16:33N 01°16' E 103°51'0 0.0
2015-Jul-24 15:33N 01°16' E 103°51'0 0.0
2015-Jul-24 14:33N 01°16' E 103°51'0 0.0
2015-Jul-24 13:33N 01°16' E 103°51'0 0.0
2015-Jul-24 12:32N 01°16' E 103°51'0 0.0
2015-Jul-24 11:33N 01°16' E 103°51'0 0.0
2015-Jul-24 10:33N 01°16' E 103°51'0 0.0
2015-Jul-24 09:33N 01°16' E 103°51'0 0.0
2015-Jul-24 08:33N 01°16' E 103°51'0 0.0
2015-Jul-24 07:33N 01°16' E 103°51'0 0.0
2015-Jul-24 06:33N 01°16' E 103°51'0 0.0
2015-Jul-24 05:33N 01°16' E 103°51'0 0.1
2015-Jul-24 04:33N 01°16' E 103°51'0 0.1
2015-Jul-24 03:33N 01°16' E 103°51'0 0.0
2015-Jul-24 02:33N 01°16' E 103°51'0 0.0
2015-Jul-24 01:31N 01°16' E 103°51'0 0.0
2015-Jul-24 00:33N 01°16' E 103°51'0 0.0
2015-Jul-23 23:33N 01°16' E 103°51'0 0.1
2015-Jul-23 22:33N 01°16' E 103°51'5 4.5
2015-Jul-23 21:33N 01°11' E 103°51'11316.0
2015-Jul-23 14:31N 01°58' E 102°08'3417.4
2015-Jul-23 12:33N 02°21' E 101°43'4414.6
2015-Jul-23 09:33N 02°51' E 101°12'9 4.4
2015-Jul-23 07:34N 02°57' E 101°18'5 4.8
2015-Jul-23 06:28N 03°02' E 101°21'0 0.0
2015-Jul-23 04:28N 03°02' E 101°21'0 0.0
2015-Jul-23 02:28N 03°02' E 101°21'0 0.0
2015-Jul-23 00:31N 03°02' E 101°21'0 0.0
2015-Jul-22 23:31N 03°01' E 101°21'0 0.0
2015-Jul-22 22:31N 03°01' E 101°21'1210.1
2015-Jul-22 21:21N 03°11' E 101°14'3116.8
2015-Jul-22 19:31N 03°28' E 100°49'1818.1
2015-Jul-22 18:33N 03°37' E 100°34'5317.8
2015-Jul-22 15:33N 04°06' E 099°49'3618.0
2015-Jul-22 13:33N 04°27' E 099°19'  

Dump ship's entire track history